sensor_id;sensor_type;location;lat;lon;timestamp;P1;durP1;ratioP1;P2;durP2;ratioP2
52386;SDS011;38317;53.084;6.960;2022-12-11T00:01:34;19.50;;;7.53;;
52386;SDS011;38317;53.084;6.960;2022-12-11T00:04:00;23.40;;;8.35;;
52386;SDS011;38317;53.084;6.960;2022-12-11T00:06:26;21.40;;;8.13;;
52386;SDS011;38317;53.084;6.960;2022-12-11T00:08:52;25.98;;;9.18;;
52386;SDS011;38317;53.084;6.960;2022-12-11T00:11:21;23.08;;;7.53;;
52386;SDS011;38317;53.084;6.960;2022-12-11T00:13:47;19.60;;;7.03;;
52386;SDS011;38317;53.084;6.960;2022-12-11T00:16:13;18.05;;;6.57;;
52386;SDS011;38317;53.084;6.960;2022-12-11T00:18:39;16.95;;;6.43;;
52386;SDS011;38317;53.084;6.960;2022-12-11T00:21:06;16.08;;;6.65;;
52386;SDS011;38317;53.084;6.960;2022-12-11T00:23:34;23.05;;;7.35;;
52386;SDS011;38317;53.084;6.960;2022-12-11T00:26:04;18.02;;;7.60;;
52386;SDS011;38317;53.084;6.960;2022-12-11T00:28:31;17.25;;;7.38;;
52386;SDS011;38317;53.084;6.960;2022-12-11T00:30:57;19.80;;;7.43;;
52386;SDS011;38317;53.084;6.960;2022-12-11T00:33:22;21.55;;;7.68;;
52386;SDS011;38317;53.084;6.960;2022-12-11T00:35:50;20.23;;;7.82;;
52386;SDS011;38317;53.084;6.960;2022-12-11T00:38:18;18.55;;;6.95;;
52386;SDS011;38317;53.084;6.960;2022-12-11T00:40:46;22.13;;;7.88;;
52386;SDS011;38317;53.084;6.960;2022-12-11T00:43:12;23.23;;;8.30;;
52386;SDS011;38317;53.084;6.960;2022-12-11T00:45:39;24.67;;;7.85;;
52386;SDS011;38317;53.084;6.960;2022-12-11T00:48:06;20.35;;;7.93;;
52386;SDS011;38317;53.084;6.960;2022-12-11T00:50:32;16.20;;;7.25;;
52386;SDS011;38317;53.084;6.960;2022-12-11T00:52:58;17.95;;;7.07;;
52386;SDS011;38317;53.084;6.960;2022-12-11T00:55:24;16.48;;;6.35;;
52386;SDS011;38317;53.084;6.960;2022-12-11T00:57:52;17.67;;;6.10;;
52386;SDS011;38317;53.084;6.960;2022-12-11T01:00:18;16.67;;;6.40;;
52386;SDS011;38317;53.084;6.960;2022-12-11T01:02:44;21.67;;;6.90;;
52386;SDS011;38317;53.084;6.960;2022-12-11T01:05:10;15.30;;;6.10;;
52386;SDS011;38317;53.084;6.960;2022-12-11T01:07:35;15.52;;;5.93;;
52386;SDS011;38317;53.084;6.960;2022-12-11T01:10:02;15.93;;;5.97;;
52386;SDS011;38317;53.084;6.960;2022-12-11T01:12:47;20.17;;;6.68;;
52386;SDS011;38317;53.084;6.960;2022-12-11T01:15:13;17.35;;;5.97;;
52386;SDS011;38317;53.084;6.960;2022-12-11T01:17:39;19.17;;;6.97;;
52386;SDS011;38317;53.084;6.960;2022-12-11T01:20:05;17.02;;;6.03;;
52386;SDS011;38317;53.084;6.960;2022-12-11T01:22:31;21.40;;;7.75;;
52386;SDS011;38317;53.084;6.960;2022-12-11T01:24:57;17.77;;;6.30;;
52386;SDS011;38317;53.084;6.960;2022-12-11T01:27:23;20.35;;;6.72;;
52386;SDS011;38317;53.084;6.960;2022-12-11T01:29:49;16.70;;;5.82;;
52386;SDS011;38317;53.084;6.960;2022-12-11T01:32:14;20.83;;;7.05;;
52386;SDS011;38317;53.084;6.960;2022-12-11T01:34:40;17.55;;;6.45;;
52386;SDS011;38317;53.084;6.960;2022-12-11T01:37:06;18.80;;;6.97;;
52386;SDS011;38317;53.084;6.960;2022-12-11T01:39:32;17.23;;;5.80;;
52386;SDS011;38317;53.084;6.960;2022-12-11T01:41:58;17.52;;;6.60;;
52386;SDS011;38317;53.084;6.960;2022-12-11T01:46:51;17.50;;;5.95;;
52386;SDS011;38317;53.084;6.960;2022-12-11T01:49:17;19.25;;;7.30;;
52386;SDS011;38317;53.084;6.960;2022-12-11T01:51:52;17.02;;;6.07;;
52386;SDS011;38317;53.084;6.960;2022-12-11T01:54:27;16.40;;;5.07;;
52386;SDS011;38317;53.084;6.960;2022-12-11T01:56:55;21.45;;;6.82;;
52386;SDS011;38317;53.084;6.960;2022-12-11T01:59:26;15.45;;;5.32;;
52386;SDS011;38317;53.084;6.960;2022-12-11T02:02:05;16.45;;;5.75;;
52386;SDS011;38317;53.084;6.960;2022-12-11T02:04:35;17.60;;;6.20;;
52386;SDS011;38317;53.084;6.960;2022-12-11T02:07:03;17.27;;;5.55;;
52386;SDS011;38317;53.084;6.960;2022-12-11T02:09:32;21.20;;;6.90;;
52386;SDS011;38317;53.084;6.960;2022-12-11T02:12:01;19.77;;;6.35;;
52386;SDS011;38317;53.084;6.960;2022-12-11T02:25:22;17.35;;;6.35;;
52386;SDS011;38317;53.084;6.960;2022-12-11T02:30:46;14.88;;;6.75;;
52386;SDS011;38317;53.084;6.960;2022-12-11T02:33:38;17.15;;;5.57;;
52386;SDS011;38317;53.084;6.960;2022-12-11T02:36:09;22.60;;;5.80;;
52386;SDS011;38317;53.084;6.960;2022-12-11T02:38:40;16.25;;;6.18;;
52386;SDS011;38317;53.084;6.960;2022-12-11T02:41:07;14.60;;;5.65;;
52386;SDS011;38317;53.084;6.960;2022-12-11T02:43:35;16.45;;;5.53;;
52386;SDS011;38317;53.084;6.960;2022-12-11T02:46:02;17.90;;;6.07;;
52386;SDS011;38317;53.084;6.960;2022-12-11T02:48:31;14.43;;;5.13;;
52386;SDS011;38317;53.084;6.960;2022-12-11T02:51:00;18.73;;;6.15;;
52386;SDS011;38317;53.084;6.960;2022-12-11T02:53:28;21.45;;;5.93;;
52386;SDS011;38317;53.084;6.960;2022-12-11T02:56:10;15.77;;;4.95;;
52386;SDS011;38317;53.084;6.960;2022-12-11T02:58:59;19.63;;;6.03;;
52386;SDS011;38317;53.084;6.960;2022-12-11T03:01:31;19.70;;;5.70;;
52386;SDS011;38317;53.084;6.960;2022-12-11T03:03:56;20.05;;;6.82;;
52386;SDS011;38317;53.084;6.960;2022-12-11T03:06:23;17.27;;;5.80;;
52386;SDS011;38317;53.084;6.960;2022-12-11T03:08:55;20.02;;;5.22;;
52386;SDS011;38317;53.084;6.960;2022-12-11T03:11:21;17.23;;;6.05;;
52386;SDS011;38317;53.084;6.960;2022-12-11T03:13:47;17.23;;;5.55;;
52386;SDS011;38317;53.084;6.960;2022-12-11T03:16:31;21.55;;;6.63;;
52386;SDS011;38317;53.084;6.960;2022-12-11T03:24:20;21.05;;;6.82;;
52386;SDS011;38317;53.084;6.960;2022-12-11T03:27:07;16.13;;;5.88;;
52386;SDS011;38317;53.084;6.960;2022-12-11T03:30:05;16.25;;;5.72;;
52386;SDS011;38317;53.084;6.960;2022-12-11T03:32:37;19.50;;;6.55;;
52386;SDS011;38317;53.084;6.960;2022-12-11T03:37:42;18.20;;;6.28;;
52386;SDS011;38317;53.084;6.960;2022-12-11T03:40:12;19.35;;;6.97;;
52386;SDS011;38317;53.084;6.960;2022-12-11T03:42:40;17.38;;;6.43;;
52386;SDS011;38317;53.084;6.960;2022-12-11T03:45:11;16.67;;;6.25;;
52386;SDS011;38317;53.084;6.960;2022-12-11T03:47:38;21.42;;;7.03;;
52386;SDS011;38317;53.084;6.960;2022-12-11T03:50:05;14.75;;;5.78;;
52386;SDS011;38317;53.084;6.960;2022-12-11T03:52:33;17.13;;;6.35;;
52386;SDS011;38317;53.084;6.960;2022-12-11T03:55:02;17.48;;;5.32;;
52386;SDS011;38317;53.084;6.960;2022-12-11T03:57:31;16.42;;;6.03;;
52386;SDS011;38317;53.084;6.960;2022-12-11T03:59:59;18.13;;;6.18;;
52386;SDS011;38317;53.084;6.960;2022-12-11T04:02:25;15.23;;;6.43;;
52386;SDS011;38317;53.084;6.960;2022-12-11T04:04:51;15.55;;;5.57;;
52386;SDS011;38317;53.084;6.960;2022-12-11T04:07:16;19.40;;;6.43;;
52386;SDS011;38317;53.084;6.960;2022-12-11T04:09:42;14.57;;;5.88;;
52386;SDS011;38317;53.084;6.960;2022-12-11T04:12:08;18.98;;;6.10;;
52386;SDS011;38317;53.084;6.960;2022-12-11T04:14:33;18.50;;;5.78;;
52386;SDS011;38317;53.084;6.960;2022-12-11T04:17:17;17.10;;;6.45;;
52386;SDS011;38317;53.084;6.960;2022-12-11T04:20:02;17.65;;;6.32;;
52386;SDS011;38317;53.084;6.960;2022-12-11T04:22:48;16.77;;;6.75;;
52386;SDS011;38317;53.084;6.960;2022-12-11T04:25:32;15.23;;;5.35;;
52386;SDS011;38317;53.084;6.960;2022-12-11T04:27:57;16.85;;;6.03;;
52386;SDS011;38317;53.084;6.960;2022-12-11T04:30:23;15.50;;;5.60;;
52386;SDS011;38317;53.084;6.960;2022-12-11T04:32:50;19.42;;;6.70;;
52386;SDS011;38317;53.084;6.960;2022-12-11T04:35:17;22.45;;;6.30;;
52386;SDS011;38317;53.084;6.960;2022-12-11T04:37:43;21.58;;;7.38;;
52386;SDS011;38317;53.084;6.960;2022-12-11T04:40:10;21.83;;;7.07;;
52386;SDS011;38317;53.084;6.960;2022-12-11T04:42:37;15.40;;;5.80;;
52386;SDS011;38317;53.084;6.960;2022-12-11T04:45:04;17.85;;;6.22;;
52386;SDS011;38317;53.084;6.960;2022-12-11T04:47:30;20.17;;;6.03;;
52386;SDS011;38317;53.084;6.960;2022-12-11T04:49:56;18.98;;;6.10;;
52386;SDS011;38317;53.084;6.960;2022-12-11T04:52:22;17.05;;;6.22;;
52386;SDS011;38317;53.084;6.960;2022-12-11T04:54:47;16.70;;;6.50;;
52386;SDS011;38317;53.084;6.960;2022-12-11T04:57:13;19.80;;;5.60;;
52386;SDS011;38317;53.084;6.960;2022-12-11T04:59:39;21.10;;;6.78;;
52386;SDS011;38317;53.084;6.960;2022-12-11T05:02:05;16.98;;;6.15;;
52386;SDS011;38317;53.084;6.960;2022-12-11T05:04:31;14.95;;;5.60;;
52386;SDS011;38317;53.084;6.960;2022-12-11T05:06:59;17.02;;;5.85;;
52386;SDS011;38317;53.084;6.960;2022-12-11T05:09:25;19.30;;;6.85;;
52386;SDS011;38317;53.084;6.960;2022-12-11T05:11:51;19.35;;;6.07;;
52386;SDS011;38317;53.084;6.960;2022-12-11T05:14:18;17.80;;;5.55;;
52386;SDS011;38317;53.084;6.960;2022-12-11T05:16:44;18.85;;;6.90;;
52386;SDS011;38317;53.084;6.960;2022-12-11T05:19:10;20.98;;;7.55;;
52386;SDS011;38317;53.084;6.960;2022-12-11T05:21:36;18.50;;;5.95;;
52386;SDS011;38317;53.084;6.960;2022-12-11T05:24:02;16.15;;;6.35;;
52386;SDS011;38317;53.084;6.960;2022-12-11T05:26:28;20.02;;;6.88;;
52386;SDS011;38317;53.084;6.960;2022-12-11T05:28:54;18.42;;;6.30;;
52386;SDS011;38317;53.084;6.960;2022-12-11T05:31:24;18.60;;;7.07;;
52386;SDS011;38317;53.084;6.960;2022-12-11T05:33:51;19.80;;;6.93;;
52386;SDS011;38317;53.084;6.960;2022-12-11T05:38:44;25.73;;;8.52;;
52386;SDS011;38317;53.084;6.960;2022-12-11T05:41:11;20.25;;;7.03;;
52386;SDS011;38317;53.084;6.960;2022-12-11T05:43:39;21.08;;;6.30;;
52386;SDS011;38317;53.084;6.960;2022-12-11T05:46:08;22.52;;;7.25;;
52386;SDS011;38317;53.084;6.960;2022-12-11T05:48:36;19.98;;;7.13;;
52386;SDS011;38317;53.084;6.960;2022-12-11T05:51:02;18.52;;;6.25;;
52386;SDS011;38317;53.084;6.960;2022-12-11T05:53:29;20.77;;;6.35;;
52386;SDS011;38317;53.084;6.960;2022-12-11T05:55:59;20.35;;;7.43;;
52386;SDS011;38317;53.084;6.960;2022-12-11T05:58:36;22.25;;;7.32;;
52386;SDS011;38317;53.084;6.960;2022-12-11T06:01:05;20.83;;;7.85;;
52386;SDS011;38317;53.084;6.960;2022-12-11T06:03:32;24.95;;;7.43;;
52386;SDS011;38317;53.084;6.960;2022-12-11T06:06:02;22.80;;;7.50;;
52386;SDS011;38317;53.084;6.960;2022-12-11T06:08:28;20.00;;;7.00;;
52386;SDS011;38317;53.084;6.960;2022-12-11T06:10:54;20.17;;;6.80;;
52386;SDS011;38317;53.084;6.960;2022-12-11T06:13:20;20.17;;;6.93;;
52386;SDS011;38317;53.084;6.960;2022-12-11T06:15:46;22.92;;;7.32;;
52386;SDS011;38317;53.084;6.960;2022-12-11T06:18:11;23.83;;;8.35;;
52386;SDS011;38317;53.084;6.960;2022-12-11T06:20:37;21.13;;;7.25;;
52386;SDS011;38317;53.084;6.960;2022-12-11T06:23:03;22.00;;;8.00;;
52386;SDS011;38317;53.084;6.960;2022-12-11T06:25:29;24.08;;;8.15;;
52386;SDS011;38317;53.084;6.960;2022-12-11T06:27:54;23.00;;;6.93;;
52386;SDS011;38317;53.084;6.960;2022-12-11T06:30:20;16.67;;;7.13;;
52386;SDS011;38317;53.084;6.960;2022-12-11T06:32:46;20.77;;;7.35;;
52386;SDS011;38317;53.084;6.960;2022-12-11T06:35:11;23.90;;;7.57;;
52386;SDS011;38317;53.084;6.960;2022-12-11T06:37:37;17.35;;;7.25;;
52386;SDS011;38317;53.084;6.960;2022-12-11T06:40:04;23.02;;;7.57;;
52386;SDS011;38317;53.084;6.960;2022-12-11T06:42:31;24.48;;;6.15;;
52386;SDS011;38317;53.084;6.960;2022-12-11T06:44:58;21.83;;;7.47;;
52386;SDS011;38317;53.084;6.960;2022-12-11T06:47:24;20.73;;;6.68;;
52386;SDS011;38317;53.084;6.960;2022-12-11T06:49:51;21.83;;;7.72;;
52386;SDS011;38317;53.084;6.960;2022-12-11T06:52:18;21.30;;;7.57;;
52386;SDS011;38317;53.084;6.960;2022-12-11T06:54:44;21.25;;;7.30;;
52386;SDS011;38317;53.084;6.960;2022-12-11T06:57:10;20.13;;;7.25;;
52386;SDS011;38317;53.084;6.960;2022-12-11T06:59:36;24.50;;;7.68;;
52386;SDS011;38317;53.084;6.960;2022-12-11T07:02:02;22.85;;;8.02;;
52386;SDS011;38317;53.084;6.960;2022-12-11T07:04:28;25.42;;;8.10;;
52386;SDS011;38317;53.084;6.960;2022-12-11T07:06:55;22.10;;;7.15;;
52386;SDS011;38317;53.084;6.960;2022-12-11T07:09:21;27.42;;;8.55;;
52386;SDS011;38317;53.084;6.960;2022-12-11T07:11:50;22.13;;;7.47;;
52386;SDS011;38317;53.084;6.960;2022-12-11T07:14:17;23.42;;;8.30;;
52386;SDS011;38317;53.084;6.960;2022-12-11T07:16:44;20.77;;;7.57;;
52386;SDS011;38317;53.084;6.960;2022-12-11T07:19:09;20.77;;;7.05;;
52386;SDS011;38317;53.084;6.960;2022-12-11T07:21:35;21.13;;;7.18;;
52386;SDS011;38317;53.084;6.960;2022-12-11T07:24:01;24.92;;;8.00;;
52386;SDS011;38317;53.084;6.960;2022-12-11T07:26:27;20.30;;;7.00;;
52386;SDS011;38317;53.084;6.960;2022-12-11T07:28:55;20.60;;;6.85;;
52386;SDS011;38317;53.084;6.960;2022-12-11T07:31:22;19.85;;;7.90;;
52386;SDS011;38317;53.084;6.960;2022-12-11T07:33:56;20.83;;;7.28;;
52386;SDS011;38317;53.084;6.960;2022-12-11T07:36:26;23.65;;;7.53;;
52386;SDS011;38317;53.084;6.960;2022-12-11T07:38:53;20.60;;;6.45;;
52386;SDS011;38317;53.084;6.960;2022-12-11T07:41:19;21.75;;;6.78;;
52386;SDS011;38317;53.084;6.960;2022-12-11T07:43:45;25.77;;;7.82;;
52386;SDS011;38317;53.084;6.960;2022-12-11T07:46:16;21.15;;;7.22;;
52386;SDS011;38317;53.084;6.960;2022-12-11T07:48:43;23.35;;;7.05;;
52386;SDS011;38317;53.084;6.960;2022-12-11T07:51:11;18.70;;;6.25;;
52386;SDS011;38317;53.084;6.960;2022-12-11T07:54:05;19.63;;;5.85;;
52386;SDS011;38317;53.084;6.960;2022-12-11T07:56:41;20.52;;;7.13;;
52386;SDS011;38317;53.084;6.960;2022-12-11T07:59:10;26.33;;;7.63;;
52386;SDS011;38317;53.084;6.960;2022-12-11T08:01:37;21.65;;;7.57;;
52386;SDS011;38317;53.084;6.960;2022-12-11T08:04:03;19.80;;;7.95;;
52386;SDS011;38317;53.084;6.960;2022-12-11T08:06:32;23.48;;;7.32;;
52386;SDS011;38317;53.084;6.960;2022-12-11T08:09:00;23.45;;;7.22;;
52386;SDS011;38317;53.084;6.960;2022-12-11T08:11:27;21.38;;;6.72;;
52386;SDS011;38317;53.084;6.960;2022-12-11T08:13:53;21.75;;;6.50;;
52386;SDS011;38317;53.084;6.960;2022-12-11T08:16:19;20.85;;;6.40;;
52386;SDS011;38317;53.084;6.960;2022-12-11T08:18:45;18.60;;;6.15;;
52386;SDS011;38317;53.084;6.960;2022-12-11T08:21:16;27.02;;;7.03;;
52386;SDS011;38317;53.084;6.960;2022-12-11T08:23:47;24.40;;;8.05;;
52386;SDS011;38317;53.084;6.960;2022-12-11T08:26:21;18.08;;;6.50;;
52386;SDS011;38317;53.084;6.960;2022-12-11T08:28:48;22.75;;;7.85;;
52386;SDS011;38317;53.084;6.960;2022-12-11T08:31:15;22.35;;;7.18;;
52386;SDS011;38317;53.084;6.960;2022-12-11T08:33:44;22.60;;;7.45;;
52386;SDS011;38317;53.084;6.960;2022-12-11T08:36:11;17.23;;;6.20;;
52386;SDS011;38317;53.084;6.960;2022-12-11T08:38:39;20.63;;;6.68;;
52386;SDS011;38317;53.084;6.960;2022-12-11T08:43:33;21.45;;;6.20;;
52386;SDS011;38317;53.084;6.960;2022-12-11T08:45:59;26.42;;;8.90;;
52386;SDS011;38317;53.084;6.960;2022-12-11T08:48:25;19.90;;;6.30;;
52386;SDS011;38317;53.084;6.960;2022-12-11T08:50:51;21.73;;;7.55;;
52386;SDS011;38317;53.084;6.960;2022-12-11T08:53:16;20.92;;;7.03;;
52386;SDS011;38317;53.084;6.960;2022-12-11T08:55:42;21.25;;;6.90;;
52386;SDS011;38317;53.084;6.960;2022-12-11T08:58:08;19.02;;;6.38;;
52386;SDS011;38317;53.084;6.960;2022-12-11T09:00:33;20.67;;;6.93;;
52386;SDS011;38317;53.084;6.960;2022-12-11T09:03:00;23.58;;;8.25;;
52386;SDS011;38317;53.084;6.960;2022-12-11T09:05:25;24.73;;;7.97;;
52386;SDS011;38317;53.084;6.960;2022-12-11T09:07:51;18.90;;;7.10;;
52386;SDS011;38317;53.084;6.960;2022-12-11T09:10:17;24.02;;;7.40;;
52386;SDS011;38317;53.084;6.960;2022-12-11T09:12:43;23.73;;;7.72;;
52386;SDS011;38317;53.084;6.960;2022-12-11T09:15:08;22.10;;;7.82;;
52386;SDS011;38317;53.084;6.960;2022-12-11T09:17:34;21.20;;;7.95;;
52386;SDS011;38317;53.084;6.960;2022-12-11T09:20:00;26.27;;;8.77;;
52386;SDS011;38317;53.084;6.960;2022-12-11T09:22:26;25.83;;;7.55;;
52386;SDS011;38317;53.084;6.960;2022-12-11T09:24:52;21.83;;;7.65;;
52386;SDS011;38317;53.084;6.960;2022-12-11T09:27:20;25.05;;;7.05;;
52386;SDS011;38317;53.084;6.960;2022-12-11T09:29:46;21.42;;;7.30;;
52386;SDS011;38317;53.084;6.960;2022-12-11T09:32:11;23.00;;;8.18;;
52386;SDS011;38317;53.084;6.960;2022-12-11T09:34:37;25.08;;;8.02;;
52386;SDS011;38317;53.084;6.960;2022-12-11T09:37:03;26.63;;;8.77;;
52386;SDS011;38317;53.084;6.960;2022-12-11T09:39:29;28.52;;;8.00;;
52386;SDS011;38317;53.084;6.960;2022-12-11T09:44:31;22.60;;;7.80;;
52386;SDS011;38317;53.084;6.960;2022-12-11T09:47:33;18.42;;;6.63;;
52386;SDS011;38317;53.084;6.960;2022-12-11T09:52:52;36.03;;;7.45;;
52386;SDS011;38317;53.084;6.960;2022-12-11T09:55:50;22.17;;;7.65;;
52386;SDS011;38317;53.084;6.960;2022-12-11T10:06:19;22.42;;;7.75;;
52386;SDS011;38317;53.084;6.960;2022-12-11T10:17:21;24.50;;;7.72;;
52386;SDS011;38317;53.084;6.960;2022-12-11T10:19:56;18.45;;;6.50;;
52386;SDS011;38317;53.084;6.960;2022-12-11T10:22:30;22.05;;;7.95;;
52386;SDS011;38317;53.084;6.960;2022-12-11T10:24:58;22.88;;;8.63;;
52386;SDS011;38317;53.084;6.960;2022-12-11T10:27:34;22.27;;;8.65;;
52386;SDS011;38317;53.084;6.960;2022-12-11T10:35:30;22.55;;;8.70;;
52386;SDS011;38317;53.084;6.960;2022-12-11T10:38:08;19.05;;;7.30;;
52386;SDS011;38317;53.084;6.960;2022-12-11T10:40:35;19.25;;;6.78;;
52386;SDS011;38317;53.084;6.960;2022-12-11T10:43:06;20.80;;;7.55;;
52386;SDS011;38317;53.084;6.960;2022-12-11T10:45:31;22.17;;;7.95;;
52386;SDS011;38317;53.084;6.960;2022-12-11T10:48:01;25.65;;;7.80;;
52386;SDS011;38317;53.084;6.960;2022-12-11T10:50:31;26.35;;;7.63;;
52386;SDS011;38317;53.084;6.960;2022-12-11T10:52:57;21.45;;;7.93;;
52386;SDS011;38317;53.084;6.960;2022-12-11T10:55:24;24.42;;;7.25;;
52386;SDS011;38317;53.084;6.960;2022-12-11T10:58:04;21.55;;;8.00;;
52386;SDS011;38317;53.084;6.960;2022-12-11T11:00:37;20.38;;;6.97;;
52386;SDS011;38317;53.084;6.960;2022-12-11T11:03:05;20.27;;;6.32;;
52386;SDS011;38317;53.084;6.960;2022-12-11T11:05:44;23.10;;;7.85;;
52386;SDS011;38317;53.084;6.960;2022-12-11T11:08:15;20.15;;;6.95;;
52386;SDS011;38317;53.084;6.960;2022-12-11T11:10:53;23.05;;;8.23;;
52386;SDS011;38317;53.084;6.960;2022-12-11T11:13:25;22.52;;;7.75;;
52386;SDS011;38317;53.084;6.960;2022-12-11T11:15:59;23.00;;;7.82;;
52386;SDS011;38317;53.084;6.960;2022-12-11T11:18:30;25.25;;;7.30;;
52386;SDS011;38317;53.084;6.960;2022-12-11T11:20:57;22.23;;;7.32;;
52386;SDS011;38317;53.084;6.960;2022-12-11T11:23:24;20.50;;;7.45;;
52386;SDS011;38317;53.084;6.960;2022-12-11T11:25:51;23.15;;;8.07;;
52386;SDS011;38317;53.084;6.960;2022-12-11T11:28:26;21.70;;;7.70;;
52386;SDS011;38317;53.084;6.960;2022-12-11T11:31:04;22.30;;;8.18;;
52386;SDS011;38317;53.084;6.960;2022-12-11T11:33:45;21.15;;;8.50;;
52386;SDS011;38317;53.084;6.960;2022-12-11T11:36:29;25.70;;;8.98;;
52386;SDS011;38317;53.084;6.960;2022-12-11T11:39:02;21.40;;;7.65;;
52386;SDS011;38317;53.084;6.960;2022-12-11T11:41:32;26.73;;;8.45;;
52386;SDS011;38317;53.084;6.960;2022-12-11T11:44:36;27.85;;;9.80;;
52386;SDS011;38317;53.084;6.960;2022-12-11T11:47:12;23.23;;;8.82;;
52386;SDS011;38317;53.084;6.960;2022-12-11T11:49:49;23.10;;;7.57;;
52386;SDS011;38317;53.084;6.960;2022-12-11T11:52:41;22.33;;;8.50;;
52386;SDS011;38317;53.084;6.960;2022-12-11T11:55:16;24.30;;;8.48;;
52386;SDS011;38317;53.084;6.960;2022-12-11T11:57:45;23.20;;;8.52;;
52386;SDS011;38317;53.084;6.960;2022-12-11T12:00:25;24.17;;;9.10;;
52386;SDS011;38317;53.084;6.960;2022-12-11T12:02:53;22.90;;;7.38;;
52386;SDS011;38317;53.084;6.960;2022-12-11T12:05:57;28.60;;;9.63;;
52386;SDS011;38317;53.084;6.960;2022-12-11T12:11:19;29.15;;;9.35;;
52386;SDS011;38317;53.084;6.960;2022-12-11T12:15:01;22.98;;;8.02;;
52386;SDS011;38317;53.084;6.960;2022-12-11T12:20:09;22.27;;;9.00;;
52386;SDS011;38317;53.084;6.960;2022-12-11T12:23:03;23.98;;;9.27;;
52386;SDS011;38317;53.084;6.960;2022-12-11T12:48:20;21.63;;;8.23;;
52386;SDS011;38317;53.084;6.960;2022-12-11T12:50:48;20.75;;;8.05;;
52386;SDS011;38317;53.084;6.960;2022-12-11T12:56:56;20.98;;;7.00;;
52386;SDS011;38317;53.084;6.960;2022-12-11T12:59:23;21.98;;;7.88;;
52386;SDS011;38317;53.084;6.960;2022-12-11T13:01:58;23.15;;;7.70;;
52386;SDS011;38317;53.084;6.960;2022-12-11T13:04:28;24.95;;;8.27;;
52386;SDS011;38317;53.084;6.960;2022-12-11T13:07:13;18.48;;;7.70;;
52386;SDS011;38317;53.084;6.960;2022-12-11T13:09:42;21.33;;;7.32;;
52386;SDS011;38317;53.084;6.960;2022-12-11T13:12:27;21.80;;;8.77;;
52386;SDS011;38317;53.084;6.960;2022-12-11T13:14:58;27.45;;;9.10;;
52386;SDS011;38317;53.084;6.960;2022-12-11T13:17:35;20.08;;;7.72;;
52386;SDS011;38317;53.084;6.960;2022-12-11T13:20:09;25.92;;;8.57;;
52386;SDS011;38317;53.084;6.960;2022-12-11T13:26:04;23.63;;;8.73;;
52386;SDS011;38317;53.084;6.960;2022-12-11T13:28:45;20.73;;;8.73;;
52386;SDS011;38317;53.084;6.960;2022-12-11T13:33:42;24.42;;;9.63;;
52386;SDS011;38317;53.084;6.960;2022-12-11T13:38:38;25.48;;;8.50;;
52386;SDS011;38317;53.084;6.960;2022-12-11T13:41:35;21.83;;;8.32;;
52386;SDS011;38317;53.084;6.960;2022-12-11T13:44:02;25.20;;;9.98;;
52386;SDS011;38317;53.084;6.960;2022-12-11T13:46:30;20.63;;;7.82;;
52386;SDS011;38317;53.084;6.960;2022-12-11T13:49:00;24.30;;;9.10;;
52386;SDS011;38317;53.084;6.960;2022-12-11T13:51:29;21.30;;;7.88;;
52386;SDS011;38317;53.084;6.960;2022-12-11T13:54:15;22.60;;;8.15;;
52386;SDS011;38317;53.084;6.960;2022-12-11T13:56:56;22.15;;;8.40;;
52386;SDS011;38317;53.084;6.960;2022-12-11T14:01:54;26.02;;;9.25;;
52386;SDS011;38317;53.084;6.960;2022-12-11T14:04:23;20.95;;;7.68;;
52386;SDS011;38317;53.084;6.960;2022-12-11T14:06:49;21.77;;;8.10;;
52386;SDS011;38317;53.084;6.960;2022-12-11T14:09:19;21.08;;;8.13;;
52386;SDS011;38317;53.084;6.960;2022-12-11T14:11:47;26.92;;;8.60;;
52386;SDS011;38317;53.084;6.960;2022-12-11T14:17:20;21.50;;;8.15;;
52386;SDS011;38317;53.084;6.960;2022-12-11T14:19:59;22.70;;;8.77;;
52386;SDS011;38317;53.084;6.960;2022-12-11T14:22:28;24.13;;;8.82;;
52386;SDS011;38317;53.084;6.960;2022-12-11T14:24:58;26.38;;;9.48;;
52386;SDS011;38317;53.084;6.960;2022-12-11T14:27:27;21.38;;;7.57;;
52386;SDS011;38317;53.084;6.960;2022-12-11T14:29:53;23.52;;;8.18;;
52386;SDS011;38317;53.084;6.960;2022-12-11T14:35:05;23.08;;;8.50;;
52386;SDS011;38317;53.084;6.960;2022-12-11T14:37:41;22.88;;;9.23;;
52386;SDS011;38317;53.084;6.960;2022-12-11T14:40:08;25.25;;;8.60;;
52386;SDS011;38317;53.084;6.960;2022-12-11T14:42:40;19.70;;;8.52;;
52386;SDS011;38317;53.084;6.960;2022-12-11T14:45:22;30.88;;;7.95;;
52386;SDS011;38317;53.084;6.960;2022-12-11T14:47:55;26.20;;;8.98;;
52386;SDS011;38317;53.084;6.960;2022-12-11T14:50:25;27.58;;;8.40;;
52386;SDS011;38317;53.084;6.960;2022-12-11T14:52:58;18.33;;;7.47;;
52386;SDS011;38317;53.084;6.960;2022-12-11T14:55:33;26.52;;;8.63;;
52386;SDS011;38317;53.084;6.960;2022-12-11T14:58:01;25.75;;;7.65;;
52386;SDS011;38317;53.084;6.960;2022-12-11T15:00:38;21.95;;;8.45;;
52386;SDS011;38317;53.084;6.960;2022-12-11T15:12:09;23.42;;;8.02;;
52386;SDS011;38317;53.084;6.960;2022-12-11T15:14:41;21.83;;;8.65;;
52386;SDS011;38317;53.084;6.960;2022-12-11T15:17:18;22.58;;;7.95;;
52386;SDS011;38317;53.084;6.960;2022-12-11T15:19:48;24.65;;;8.90;;
52386;SDS011;38317;53.084;6.960;2022-12-11T15:22:17;18.15;;;7.13;;
52386;SDS011;38317;53.084;6.960;2022-12-11T15:24:48;20.80;;;7.55;;
52386;SDS011;38317;53.084;6.960;2022-12-11T15:27:24;23.50;;;7.82;;
52386;SDS011;38317;53.084;6.960;2022-12-11T15:35:49;24.42;;;8.60;;
52386;SDS011;38317;53.084;6.960;2022-12-11T15:38:26;20.13;;;7.68;;
52386;SDS011;38317;53.084;6.960;2022-12-11T15:40:57;22.30;;;8.73;;
52386;SDS011;38317;53.084;6.960;2022-12-11T15:43:23;24.73;;;9.77;;
52386;SDS011;38317;53.084;6.960;2022-12-11T15:45:50;20.95;;;8.75;;
52386;SDS011;38317;53.084;6.960;2022-12-11T15:48:15;29.10;;;8.35;;
52386;SDS011;38317;53.084;6.960;2022-12-11T15:50:41;24.92;;;9.55;;
52386;SDS011;38317;53.084;6.960;2022-12-11T15:53:07;28.40;;;9.20;;
52386;SDS011;38317;53.084;6.960;2022-12-11T15:55:33;20.23;;;9.15;;
52386;SDS011;38317;53.084;6.960;2022-12-11T15:58:03;22.40;;;8.20;;
52386;SDS011;38317;53.084;6.960;2022-12-11T16:00:31;23.38;;;8.52;;
52386;SDS011;38317;53.084;6.960;2022-12-11T16:02:57;26.23;;;9.05;;
52386;SDS011;38317;53.084;6.960;2022-12-11T16:05:23;23.55;;;9.30;;
52386;SDS011;38317;53.084;6.960;2022-12-11T16:07:50;24.38;;;9.05;;
52386;SDS011;38317;53.084;6.960;2022-12-11T16:10:23;25.27;;;8.57;;
52386;SDS011;38317;53.084;6.960;2022-12-11T16:12:49;27.20;;;9.07;;
52386;SDS011;38317;53.084;6.960;2022-12-11T16:15:15;23.77;;;7.95;;
52386;SDS011;38317;53.084;6.960;2022-12-11T16:17:41;25.33;;;8.52;;
52386;SDS011;38317;53.084;6.960;2022-12-11T16:20:07;25.88;;;9.07;;
52386;SDS011;38317;53.084;6.960;2022-12-11T16:22:34;27.02;;;9.48;;
52386;SDS011;38317;53.084;6.960;2022-12-11T16:25:00;24.83;;;9.13;;
52386;SDS011;38317;53.084;6.960;2022-12-11T16:27:26;25.83;;;8.82;;
52386;SDS011;38317;53.084;6.960;2022-12-11T16:29:52;24.52;;;9.20;;
52386;SDS011;38317;53.084;6.960;2022-12-11T16:32:17;21.05;;;8.80;;
52386;SDS011;38317;53.084;6.960;2022-12-11T16:34:44;26.33;;;9.63;;
52386;SDS011;38317;53.084;6.960;2022-12-11T16:37:10;24.48;;;9.90;;
52386;SDS011;38317;53.084;6.960;2022-12-11T16:39:36;26.80;;;10.45;;
52386;SDS011;38317;53.084;6.960;2022-12-11T16:42:05;26.75;;;11.32;;
52386;SDS011;38317;53.084;6.960;2022-12-11T16:44:31;33.83;;;12.98;;
52386;SDS011;38317;53.084;6.960;2022-12-11T16:46:57;31.42;;;12.05;;
52386;SDS011;38317;53.084;6.960;2022-12-11T16:49:22;31.08;;;13.60;;